Time;durP1;ratioP1;P1;durP2;ratioP2;P2;SDS_P1;SDS_P2;PMS_P1;PMS_P2;Temp;Humidity;BMP_temperature;BMP_pressure;BME280_temperature;BME280_humidity;BME280_pressure;Samples;Min_cycle;Max_cycle;Signal;HPM_P1;HPM_P2
2023/10/29 00:02:08;;;;;;;2.5;1.3;;;;;;;11.51;76.02;;;;;
2023/10/29 00:13:08;;;;;;;2.5;1.3;;;;;;;11.48;76.02;;;;;
2023/10/29 00:23:08;;;;;;;2.5;1.3;;;;;;;11.55;76.16;;;;;
2023/10/29 00:33:08;;;;;;;3;1.4;;;;;;;11.61;75.01;;;;;
2023/10/29 00:44:08;;;;;;;3;1.4;;;;;;;11.63;74.26;;;;;
2023/10/29 00:54:08;;;;;;;3.8;1.2;;;;;;;11.67;74.36;;;;;
2023/10/29 01:05:08;;;;;;;3.8;1.2;;;;;;;11.49;74.9;;;;;
2023/10/29 01:15:08;;;;;;;3.8;1.2;;;;;;;11.43;75.49;;;;;
2023/10/29 01:26:08;;;;;;;2.6;1.1;;;;;;;11.35;75.74;;;;;
2023/10/29 01:36:08;;;;;;;2.6;1.1;;;;;;;11.36;75.67;;;;;
2023/10/29 01:46:08;;;;;;;2.6;1.1;;;;;;;11.29;75.48;;;;;
2023/10/29 01:56:08;;;;;;;2.6;1.1;;;;;;;11.11;75.26;;;;;
2023/10/29 02:06:08;;;;;;;2.6;1.1;;;;;;;11.09;75.26;;;;;
2023/10/29 02:17:08;;;;;;;2.6;1.1;;;;;;;11.06;75.84;;;;;
2023/10/29 02:28:08;;;;;;;2.5;1.2;;;;;;;11.08;76.69;;;;;
2023/10/29 02:39:08;;;;;;;2.5;1.2;;;;;;;10.82;77.9;;;;;
2023/10/29 02:50:08;;;;;;;2.5;1.2;;;;;;;10.56;77.73;;;;;
2023/10/29 03:01:08;;;;;;;2.7;1.1;;;;;;;10.49;77.41;;;;;
2023/10/29 03:12:08;;;;;;;2.7;1.1;;;;;;;10.1;77.09;;;;;
2023/10/29 03:23:08;;;;;;;2.7;1.1;;;;;;;9.58;77.68;;;;;
2023/10/29 03:33:09;;;;;;;2;0.9;;;;;;;9.2;79.23;;;;;
2023/10/29 03:44:08;;;;;;;2;0.9;;;;;;;8.83;79.28;;;;;
2023/10/29 03:54:08;;;;;;;3;1.4;;;;;;;8.58;79.81;;;;;
2023/10/29 04:04:08;;;;;;;3;1.4;;;;;;;8.37;80.16;;;;;
2023/10/29 04:14:08;;;;;;;3;1.4;;;;;;;8.06;80.65;;;;;
2023/10/29 04:25:08;;;;;;;2.7;1;;;;;;;7.91;81.99;;;;;
2023/10/29 04:36:08;;;;;;;2.7;1;;;;;;;7.71;82.71;;;;;
2023/10/29 04:46:10;;;;;;;2.7;1;;;;;;;7.57;83.25;;;;;
2023/10/29 04:57:08;;;;;;;4.6;1.9;;;;;;;7.41;83.71;;;;;
2023/10/29 05:08:08;;;;;;;4.6;1.9;;;;;;;7.26;84.02;;;;;
2023/10/29 05:18:09;;;;;;;4.6;1.9;;;;;;;7.12;85.31;;;;;
2023/10/29 05:28:08;;;;;;;3.8;1.7;;;;;;;7.07;85.85;;;;;
2023/10/29 05:39:09;;;;;;;3.8;1.7;;;;;;;7.07;86.21;;;;;
2023/10/29 05:49:08;;;;;;;3.8;1.7;;;;;;;7.13;86.86;;;;;
2023/10/29 05:59:08;;;;;;;2.4;1.2;;;;;;;7.17;86.96;;;;;
2023/10/29 06:09:09;;;;;;;2.4;1.2;;;;;;;7.4;87.28;;;;;
2023/10/29 06:19:09;;;;;;;2.4;1.2;;;;;;;7.71;87.61;;;;;
2023/10/29 06:30:08;;;;;;;4.1;1.6;;;;;;;8.14;87.46;;;;;
2023/10/29 06:40:08;;;;;;;4.1;1.6;;;;;;;8.49;86.94;;;;;
2023/10/29 06:51:09;;;;;;;4.1;1.6;;;;;;;8.81;86.4;;;;;
2023/10/29 07:02:08;;;;;;;3.9;1.7;;;;;;;9.35;85.79;;;;;
2023/10/29 07:13:09;;;;;;;3.9;1.7;;;;;;;9.96;84.78;;;;;
2023/10/29 07:24:08;;;;;;;5.1;2.1;;;;;;;10.65;83.4;;;;;
2023/10/29 07:34:08;;;;;;;5.1;2.1;;;;;;;11.31;81.01;;;;;
2023/10/29 07:45:09;;;;;;;5.1;2.1;;;;;;;11.76;79.35;;;;;
2023/10/29 07:55:08;;;;;;;6.4;2;;;;;;;12.17;78.25;;;;;
2023/10/29 08:06:08;;;;;;;6.4;2;;;;;;;12.43;76.01;;;;;
2023/10/29 08:16:08;;;;;;;6.4;2;;;;;;;12.94;76.27;;;;;
2023/10/29 08:26:09;;;;;;;3.7;1.6;;;;;;;13.26;73.87;;;;;
2023/10/29 08:37:10;;;;;;;3.7;1.6;;;;;;;13.65;73.56;;;;;
2023/10/29 08:48:10;;;;;;;3.7;1.6;;;;;;;14.19;71.98;;;;;
2023/10/29 08:59:09;;;;;;;3.8;1.8;;;;;;;14.7;71.8;;;;;
2023/10/29 09:10:08;;;;;;;3.8;1.8;;;;;;;15.26;70.57;;;;;
2023/10/29 09:21:08;;;;;;;3.8;1.8;;;;;;;15.91;69.82;;;;;
2023/10/29 09:32:08;;;;;;;3.9;1.6;;;;;;;16.31;67.29;;;;;
2023/10/29 09:42:09;;;;;;;3.9;1.6;;;;;;;16.78;66.6;;;;;
2023/10/29 09:53:08;;;;;;;3.9;1.6;;;;;;;17.19;64.36;;;;;
2023/10/29 10:03:09;;;;;;;4.1;1.5;;;;;;;17.45;61.06;;;;;
2023/10/29 10:14:09;;;;;;;4.1;1.5;;;;;;;17.91;60.73;;;;;
2023/10/29 10:24:08;;;;;;;6.8;1.9;;;;;;;18.09;59.27;;;;;
2023/10/29 10:35:08;;;;;;;6.8;1.9;;;;;;;18.4;58.75;;;;;
2023/10/29 10:46:08;;;;;;;6.8;1.9;;;;;;;18.79;57.57;;;;;
2023/10/29 10:57:08;;;;;;;4;1.5;;;;;;;19.1;56.15;;;;;
2023/10/29 11:07:09;;;;;;;4;1.5;;;;;;;19.5;55.1;;;;;
2023/10/29 11:18:08;;;;;;;4;1.5;;;;;;;19.58;55.3;;;;;
2023/10/29 11:28:09;;;;;;;6.2;1.7;;;;;;;19.58;55.93;;;;;
2023/10/29 11:38:08;;;;;;;6.2;1.7;;;;;;;19.9;54.5;;;;;
2023/10/29 11:49:09;;;;;;;6.2;1.7;;;;;;;19.93;52.75;;;;;
2023/10/29 11:59:08;;;;;;;4.2;1.4;;;;;;;19.89;53.33;;;;;
2023/10/29 12:09:09;;;;;;;4.2;1.4;;;;;;;20.01;52.04;;;;;
2023/10/29 12:20:09;;;;;;;4.2;1.4;;;;;;;19.31;53.01;;;;;
2023/10/29 12:30:09;;;;;;;3.6;1.3;;;;;;;19.58;54.85;;;;;
2023/10/29 12:40:09;;;;;;;3.6;1.3;;;;;;;19.63;55.17;;;;;
2023/10/29 12:50:09;;;;;;;3.6;1.3;;;;;;;19.78;51.69;;;;;
2023/10/29 13:01:08;;;;;;;3.6;1.5;;;;;;;19.74;52.03;;;;;
2023/10/29 13:11:11;;;;;;;3.6;1.5;;;;;;;19.78;50.69;;;;;
2023/10/29 13:21:09;;;;;;;3.6;1.5;;;;;;;19.59;53.67;;;;;
2023/10/29 13:32:09;;;;;;;3.2;1.2;;;;;;;19.37;53.53;;;;;
2023/10/29 13:42:09;;;;;;;3.2;1.2;;;;;;;18.97;53.2;;;;;
2023/10/29 13:52:08;;;;;;;3.2;1.2;;;;;;;18.67;52.7;;;;;
2023/10/29 14:03:10;;;;;;;3.4;1.2;;;;;;;18.27;52.89;;;;;
2023/10/29 14:13:08;;;;;;;3.4;1.2;;;;;;;17.91;53.5;;;;;
2023/10/29 14:23:09;;;;;;;3.4;1.2;;;;;;;17.64;53.67;;;;;
2023/10/29 14:33:09;;;;;;;4.3;1.6;;;;;;;17.2;55.64;;;;;
2023/10/29 14:44:09;;;;;;;4.3;1.6;;;;;;;16.67;58;;;;;
2023/10/29 14:54:09;;;;;;;3.2;1.9;;;;;;;16.19;59.58;;;;;
2023/10/29 15:04:09;;;;;;;3.2;1.9;;;;;;;15.51;62.07;;;;;
2023/10/29 15:15:09;;;;;;;3.2;1.9;;;;;;;14.78;66;;;;;
2023/10/29 15:26:09;;;;;;;11.7;5.7;;;;;;;14.18;66.95;;;;;
2023/10/29 15:36:09;;;;;;;11.7;5.7;;;;;;;13.61;69.85;;;;;
2023/10/29 15:46:09;;;;;;;11.7;5.7;;;;;;;12.98;71.75;;;;;
2023/10/29 15:57:09;;;;;;;7.9;4.5;;;;;;;12.57;73.94;;;;;
2023/10/29 16:08:09;;;;;;;7.9;4.5;;;;;;;12.2;75.32;;;;;
2023/10/29 16:19:09;;;;;;;7.9;4.5;;;;;;;12.22;74.63;;;;;
2023/10/29 16:29:11;;;;;;;7.4;3.7;;;;;;;12.11;74.41;;;;;
2023/10/29 16:39:09;;;;;;;7.4;3.7;;;;;;;11.8;74.82;;;;;
2023/10/29 16:50:09;;;;;;;7.4;3.7;;;;;;;11.79;75.13;;;;;
2023/10/29 17:00:09;;;;;;;8.4;3.1;;;;;;;11.56;75.22;;;;;
2023/10/29 17:11:09;;;;;;;8.4;3.1;;;;;;;11.49;76.23;;;;;
2023/10/29 17:21:09;;;;;;;8.4;3.1;;;;;;;11.41;76.3;;;;;
2023/10/29 17:32:10;;;;;;;7.7;3.3;;;;;;;11.27;76.98;;;;;
2023/10/29 17:42:09;;;;;;;7.7;3.3;;;;;;;11.16;77.02;;;;;
2023/10/29 17:52:09;;;;;;;7.7;3.3;;;;;;;10.91;78.04;;;;;
2023/10/29 18:02:09;;;;;;;10.1;4.5;;;;;;;10.77;79.32;;;;;
2023/10/29 18:13:09;;;;;;;10.1;4.5;;;;;;;10.69;79.03;;;;;
2023/10/29 18:24:09;;;;;;;13;6.6;;;;;;;10.6;78.84;;;;;
2023/10/29 18:34:09;;;;;;;13;6.6;;;;;;;10.51;78.86;;;;;
2023/10/29 18:45:09;;;;;;;13;6.6;;;;;;;10.37;78.79;;;;;
2023/10/29 18:56:09;;;;;;;14.5;7.4;;;;;;;10.23;80.17;;;;;
2023/10/29 19:07:10;;;;;;;14.5;7.4;;;;;;;10.16;80.05;;;;;
2023/10/29 19:17:09;;;;;;;14.5;7.4;;;;;;;10.11;79.33;;;;;
2023/10/29 19:28:09;;;;;;;9.4;4.9;;;;;;;9.89;79.37;;;;;
2023/10/29 19:39:12;;;;;;;9.4;4.9;;;;;;;9.8;81.93;;;;;
2023/10/29 19:50:10;;;;;;;9.4;4.9;;;;;;;9.7;82.32;;;;;
2023/10/29 20:01:09;;;;;;;6.6;3.1;;;;;;;9.81;82.41;;;;;
2023/10/29 20:12:09;;;;;;;6.6;3.1;;;;;;;9.69;81.66;;;;;
2023/10/29 20:22:09;;;;;;;6.6;3.1;;;;;;;9.45;81.52;;;;;
2023/10/29 20:32:09;;;;;;;9.6;5.1;;;;;;;9.29;83.13;;;;;
2023/10/29 20:43:09;;;;;;;9.6;5.1;;;;;;;9.27;83.7;;;;;
2023/10/29 20:53:09;;;;;;;9.6;5.1;;;;;;;9.34;85.04;;;;;
2023/10/29 21:04:09;;;;;;;11.2;5.6;;;;;;;9.47;84.44;;;;;
2023/10/29 21:15:09;;;;;;;11.2;5.6;;;;;;;9.57;84.31;;;;;
2023/10/29 21:25:09;;;;;;;5.8;3.3;;;;;;;9.62;84.64;;;;;
2023/10/29 21:36:09;;;;;;;5.8;3.3;;;;;;;9.51;84.57;;;;;
2023/10/29 21:46:09;;;;;;;5.8;3.3;;;;;;;9.74;86;;;;;
2023/10/29 21:56:09;;;;;;;7.1;3.4;;;;;;;9.9;85.8;;;;;
2023/10/29 22:07:09;;;;;;;7.1;3.4;;;;;;;9.91;85.21;;;;;
2023/10/29 22:17:13;;;;;;;7.1;3.4;;;;;;;9.88;85.21;;;;;
2023/10/29 22:28:09;;;;;;;6.9;3;;;;;;;9.8;84.85;;;;;
2023/10/29 22:39:09;;;;;;;6.9;3;;;;;;;9.65;84.56;;;;;
2023/10/29 22:50:09;;;;;;;6.9;3;;;;;;;9.55;84.71;;;;;
2023/10/29 23:01:09;;;;;;;7.7;3.1;;;;;;;9.54;86.31;;;;;
2023/10/29 23:11:09;;;;;;;7.7;3.1;;;;;;;9.41;85.58;;;;;
2023/10/29 23:22:09;;;;;;;7.7;3.1;;;;;;;9.18;85.22;;;;;
2023/10/29 23:33:09;;;;;;;6.7;3.5;;;;;;;8.82;85.98;;;;;
2023/10/29 23:43:09;;;;;;;6.7;3.5;;;;;;;8.82;87.06;;;;;
2023/10/29 23:53:09;;;;;;;9.1;4.6;;;;;;;8.76;87.48;;;;;
